createdAt,value
2022-09-06T00:01:25.714Z,12.66
2022-09-06T00:07:27.627Z,12.54
2022-09-06T00:13:29.521Z,12.14
2022-09-06T00:19:31.317Z,12.50
2022-09-06T00:25:33.985Z,12.42
2022-09-06T00:31:35.861Z,12.50
2022-09-06T00:37:37.727Z,12.86
2022-09-06T00:43:40.689Z,13.03
2022-09-06T00:49:47.063Z,12.67
2022-09-06T00:55:49.429Z,12.04
2022-09-06T01:01:51.370Z,12.78
2022-09-06T01:08:16.832Z,12.63
2022-09-06T01:14:37.245Z,13.07
2022-09-06T01:20:54.249Z,12.83
2022-09-06T01:27:24.949Z,12.53
2022-09-06T01:34:05.278Z,12.72
2022-09-06T01:40:08.119Z,13.04
2022-09-06T01:46:09.944Z,12.92
2022-09-06T01:52:26.525Z,12.91
2022-09-06T01:59:06.937Z,13.13
2022-09-06T02:05:14.685Z,13.00
2022-09-06T02:11:17.170Z,12.90
2022-09-06T02:17:23.970Z,12.82
2022-09-06T02:23:31.357Z,12.71
2022-09-06T02:29:34.280Z,12.53
2022-09-06T02:35:45.110Z,12.66
2022-09-06T02:41:48.385Z,12.74
2022-09-06T02:47:50.186Z,12.91
2022-09-06T02:53:52.108Z,12.85
2022-09-06T02:59:53.944Z,12.59
2022-09-06T03:05:56.390Z,12.43
2022-09-06T03:11:58.154Z,11.90
2022-09-06T03:18:00.254Z,12.75
2022-09-06T03:24:02.284Z,12.44
2022-09-06T03:30:06.163Z,12.76
2022-09-06T03:36:07.996Z,12.31
2022-09-06T03:42:09.903Z,12.23
2022-09-06T03:48:11.739Z,12.47
2022-09-06T03:54:13.740Z,12.80
2022-09-06T04:00:15.915Z,12.62
2022-09-06T04:06:17.874Z,13.01
2022-09-06T04:12:19.770Z,12.87
2022-09-06T04:18:22.123Z,12.39
2022-09-06T04:24:24.048Z,12.69
2022-09-06T04:30:26.076Z,12.65
2022-09-06T04:36:28.126Z,12.68
2022-09-06T04:42:30.034Z,12.43
2022-09-06T04:48:31.961Z,12.99
2022-09-06T04:54:33.912Z,12.88
2022-09-06T05:00:36.600Z,13.02
2022-09-06T05:06:40.142Z,13.04
2022-09-06T05:12:44.293Z,13.38
2022-09-06T05:18:46.287Z,13.57
2022-09-06T05:24:48.163Z,13.40
2022-09-06T05:30:50.043Z,13.68
2022-09-06T05:36:51.912Z,13.53
2022-09-06T05:42:53.693Z,14.01
2022-09-06T05:48:58.231Z,14.40
2022-09-06T05:55:00.009Z,14.20
2022-09-06T06:01:16.230Z,14.16
2022-09-06T06:07:18.365Z,14.29
2022-09-06T06:13:20.183Z,14.60
2022-09-06T06:19:22.010Z,14.74
2022-09-06T06:25:26.378Z,14.71
2022-09-06T06:31:30.249Z,15.13
2022-09-06T06:37:36.731Z,15.31
2022-09-06T06:43:38.596Z,15.46
2022-09-06T06:49:40.363Z,15.53
2022-09-06T06:55:48.215Z,15.90
2022-09-06T07:01:57.534Z,15.92
2022-09-06T07:07:59.609Z,15.50
2022-09-06T07:14:01.467Z,16.45
2022-09-06T07:20:18.910Z,16.18
2022-09-06T07:26:26.347Z,16.81
2022-09-06T07:32:28.142Z,16.46
2022-09-06T07:38:31.541Z,16.71
2022-09-06T07:44:33.352Z,17.48
2022-09-06T07:50:51.855Z,17.38
2022-09-06T07:56:55.927Z,17.49
2022-09-06T08:03:00.312Z,16.88
2022-09-06T08:09:03.905Z,17.84
2022-09-06T08:15:06.571Z,17.73
2022-09-06T08:21:13.399Z,18.02
2022-09-06T08:27:15.156Z,18.07
2022-09-06T08:39:54.936Z,19.11
2022-09-06T08:45:57.468Z,18.61
2022-09-06T08:52:18.105Z,19.61
2022-09-06T09:04:57.558Z,18.83
2022-09-06T09:11:10.489Z,19.68
2022-09-06T09:17:27.988Z,19.96
2022-09-06T09:23:31.288Z,19.93
2022-09-06T09:35:52.757Z,20.40
2022-09-06T09:41:55.203Z,20.47
2022-09-06T09:47:57.920Z,19.21
2022-09-06T09:54:02.394Z,19.77
2022-09-06T10:00:13.460Z,20.33
2022-09-06T10:13:47.259Z,20.95
2022-09-06T10:26:46.749Z,21.14
2022-09-06T10:33:00.256Z,20.65
2022-09-06T10:39:43.763Z,21.25
2022-09-06T10:46:05.319Z,21.90
2022-09-06T10:52:11.889Z,20.87
2022-09-06T10:58:19.055Z,20.60
2022-09-06T11:10:57.344Z,20.96
2022-09-06T11:17:05.293Z,20.56
2022-09-06T11:36:50.990Z,20.31
2022-09-06T11:42:53.071Z,22.76
2022-09-06T11:49:02.992Z,20.52
2022-09-06T11:55:10.752Z,21.35
2022-09-06T12:01:12.600Z,21.37
2022-09-06T12:14:28.433Z,20.85
2022-09-06T12:33:41.053Z,21.92
2022-09-06T13:18:51.564Z,21.37
2022-09-06T13:37:41.940Z,21.01
2022-09-06T13:43:45.980Z,21.25
2022-09-06T13:56:48.270Z,22.05
2022-09-06T14:15:46.742Z,22.31
2022-09-06T14:21:48.905Z,22.89
2022-09-06T14:34:15.254Z,22.16
2022-09-06T14:40:17.767Z,21.30
2022-09-06T14:46:22.738Z,21.84
2022-09-06T14:52:39.166Z,20.29
2022-09-06T14:58:42.800Z,20.82
2022-09-06T15:04:47.473Z,21.56
2022-09-06T15:10:56.181Z,21.05
2022-09-06T15:23:32.767Z,21.32
2022-09-06T15:29:34.781Z,21.19
2022-09-06T15:35:38.617Z,20.38
2022-09-06T15:41:41.486Z,20.88
2022-09-06T15:47:43.480Z,20.10
2022-09-06T15:53:46.877Z,21.35
2022-09-06T16:02:09.634Z,20.59
2022-09-06T16:06:53.290Z,21.37
2022-09-06T16:12:55.749Z,19.68
2022-09-06T16:18:59.139Z,18.72
2022-09-06T16:25:01.116Z,18.24
2022-09-06T16:31:08.543Z,19.41
2022-09-06T16:37:10.564Z,19.28
2022-09-06T16:43:13.214Z,20.09
2022-09-06T16:49:17.274Z,17.28
2022-09-06T16:55:19.349Z,17.35
2022-09-06T17:01:21.969Z,18.10
2022-09-06T17:07:24.899Z,17.67
2022-09-06T17:13:27.758Z,18.03
2022-09-06T17:19:30.102Z,17.11
2022-09-06T17:25:32.993Z,17.48
2022-09-06T17:31:35.777Z,15.79
2022-09-06T17:37:37.571Z,16.83
2022-09-06T17:43:39.444Z,17.06
2022-09-06T17:49:42.655Z,17.22
2022-09-06T17:55:47.288Z,16.63
2022-09-06T18:01:49.095Z,16.45
2022-09-06T18:07:51.072Z,16.21
2022-09-06T18:13:57.354Z,16.24
2022-09-06T18:20:02.263Z,15.84
2022-09-06T18:26:08.002Z,15.84
2022-09-06T18:32:09.951Z,15.52
2022-09-06T18:38:12.835Z,15.39
2022-09-06T18:44:14.718Z,15.63
2022-09-06T18:50:17.304Z,15.87
2022-09-06T18:56:19.995Z,14.88
2022-09-06T19:02:23.640Z,15.50
2022-09-06T19:08:25.633Z,15.09
2022-09-06T19:14:27.610Z,13.61
2022-09-06T19:20:29.426Z,13.08
2022-09-06T19:26:34.272Z,15.03
2022-09-06T19:32:36.512Z,14.49
2022-09-06T19:38:59.578Z,15.06
2022-09-06T19:45:00.829Z,14.85
2022-09-06T19:51:08.295Z,14.75
2022-09-06T19:57:10.330Z,15.37
2022-09-06T20:03:12.475Z,14.07
2022-09-06T20:09:16.113Z,14.83
2022-09-06T20:15:17.949Z,14.90
2022-09-06T20:21:21.104Z,14.80
2022-09-06T20:27:23.026Z,14.74
2022-09-06T20:33:24.808Z,14.82
2022-09-06T20:39:26.686Z,15.04
2022-09-06T20:45:28.542Z,15.44
2022-09-06T20:51:31.287Z,15.15
2022-09-06T20:57:33.142Z,14.32
2022-09-06T21:03:38.638Z,15.00
2022-09-06T21:09:40.507Z,13.76
2022-09-06T21:15:42.438Z,14.24
2022-09-06T21:21:44.432Z,14.51
2022-09-06T21:27:46.241Z,13.78
2022-09-06T21:33:54.400Z,13.84
2022-09-06T21:39:56.270Z,13.89
2022-09-06T21:46:02.134Z,14.05
2022-09-06T21:52:04.145Z,13.28
2022-09-06T21:58:06.182Z,14.06
2022-09-06T22:04:08.464Z,13.22
2022-09-06T22:10:10.197Z,13.39
2022-09-06T22:16:13.215Z,13.83
2022-09-06T22:22:15.076Z,13.68
2022-09-06T22:28:16.879Z,13.90
2022-09-06T22:34:18.772Z,13.88
2022-09-06T22:40:20.726Z,13.65
2022-09-06T22:46:23.167Z,13.95
2022-09-06T22:52:25.029Z,13.70
2022-09-06T22:58:27.222Z,13.42
2022-09-06T23:04:29.192Z,13.74
2022-09-06T23:10:32.410Z,12.72
2022-09-06T23:16:34.369Z,12.27
2022-09-06T23:22:36.228Z,13.25
2022-09-06T23:28:39.032Z,12.98
2022-09-06T23:34:40.777Z,12.60
2022-09-06T23:40:42.493Z,12.92
2022-09-06T23:46:44.382Z,12.77
2022-09-06T23:52:46.404Z,12.10
2022-09-06T23:58:48.214Z,11.66
